Glory Atlantic — LADA8 — position and weather

sailwx.info

Track history (hours):
 
Tides and Currents Weather Stations Pressure Air Temp Water Temp Dewpoint Dewpoint Depression Visibility Wind Speed Wind Dir Waves Ship Positions

Glory Atlantic

Last reported at 2017-Sep-21 18:48 UTC. Time now 2017-Sep-23 04:08 UTC.
Position S 34°35' E 151°12'.

Length 145 m; draft 8 m.

Type: Cargo ship. MMSI: 257223000.

Date/timePositionNaut miles runAvg speedWind from/ knotsBaromVisibWave heightAir tempDewpointWater temp
2017-Sep-21 18:48S 34°35' E 151°12'612.1
2017-Sep-21 18:21S 34°30' E 151°14'3312.2
2017-Sep-21 15:40S 33°59' E 151°25'210.7
2017-Sep-21 15:28S 33°57' E 151°25'712.0
2017-Sep-21 14:51S 33°51' E 151°20'3 8.3
2017-Sep-21 14:30S 33°50' E 151°16'6 0.3
2017-Sep-20 16:38S 33°51' E 151°24'1 6.3
2017-Sep-20 16:28S 33°51' E 151°25'1 1.8
2017-Sep-20 15:52S 33°50' E 151°27'1 2.4
2017-Sep-20 15:30S 33°50' E 151°27'5710.1
2017-Sep-20 09:52S 33°14' E 152°20'511.2
2017-Sep-20 09:27S 33°10' E 152°24'511.1
2017-Sep-20 09:00S 33°06' E 152°28'611.2
2017-Sep-20 08:30S 33°02' E 152°32'611.7
2017-Sep-20 08:00S 32°58' E 152°37'612.3
2017-Sep-20 07:30S 32°53' E 152°41'612.2
2017-Sep-20 07:00S 32°48' E 152°46'23611.8
2017-Sep-19 10:59S 28°59' E 153°51'913.8
2017-Sep-19 10:18S 28°50' E 153°53'413.8
2017-Sep-19 10:00S 28°46' E 153°53'713.7
2017-Sep-19 09:28S 28°38' E 153°54'613.5
2017-Sep-19 09:00S 28°32' E 153°54'713.2
2017-Sep-19 08:31S 28°26' E 153°54'713.2
2017-Sep-19 08:00S 28°19' E 153°55'613.0
2017-Sep-19 07:30S 28°12' E 153°55'612.3
2017-Sep-19 07:00S 28°06' E 153°55'611.9
2017-Sep-19 06:31S 28°00' E 153°54'611.5
2017-Sep-19 06:00S 27°55' E 153°54'611.2
2017-Sep-19 05:30S 27°49' E 153°53'511.1
2017-Sep-19 05:00S 27°43' E 153°53'611.0
2017-Sep-19 04:30S 27°38' E 153°53'3910.6
2017-Sep-19 00:48S 26°59' E 153°50'410.8
2017-Sep-19 00:27S 26°55' E 153°49'610.9
2017-Sep-18 23:54S 26°49' E 153°49'611.4
2017-Sep-18 23:20S 26°43' E 153°48'411.2
2017-Sep-18 23:01S 26°39' E 153°48'611.1
2017-Sep-18 22:31S 26°33' E 153°48'711.0
2017-Sep-18 21:51S 26°26' E 153°47'  
2017-Sep-14 14:26S 27°36' E 153°52'511.4
2017-Sep-14 14:00S 27°41' E 153°52'611.4
2017-Sep-14 13:30S 27°46' E 153°53'611.5
2017-Sep-14 13:00S 27°52' E 153°53'611.4
2017-Sep-14 12:30S 27°58' E 153°53'28111.2
2017-Sep-13 11:30S 32°31' E 152°38'811.6
2017-Sep-13 10:50S 32°37' E 152°32'411.5
2017-Sep-13 10:31S 32°40' E 152°29'611.3
2017-Sep-13 10:00S 32°44' E 152°25'611.3
2017-Sep-13 09:30S 32°49' E 152°21'611.6
2017-Sep-13 09:00S 32°53' E 152°17'611.8
2017-Sep-13 08:30S 32°58' E 152°12'612.1
2017-Sep-13 08:00S 33°03' E 152°08'612.1
2017-Sep-13 07:30S 33°07' E 152°03'611.8
2017-Sep-13 07:00S 33°12' E 151°59'611.6
2017-Sep-13 06:30S 33°17' E 151°55'2911.3
2017-Sep-13 03:59S 33°39' E 151°33'511.1
2017-Sep-13 03:30S 33°43' E 151°29'510.7
2017-Sep-13 03:00S 33°47' E 151°25'  
Track history (hours):
 
Tides and Currents Weather Stations Pressure Air Temp Water Temp Dewpoint Dewpoint Depression Visibility Wind Speed Wind Dir Waves Ship Positions

Glory Atlantic

Last reported at 2017-Sep-21 18:48 UTC. Time now 2017-Sep-23 04:08 UTC.
Position S 34°35' E 151°12'.

Length 145 m; draft 8 m.

Type: Cargo ship. MMSI: 257223000.

Date/timePositionNaut miles runAvg speedWind from/ knotsBaromVisibWave heightAir tempDewpointWater temp
2017-Sep-21 18:48S 34°35' E 151°12'612.1
2017-Sep-21 18:21S 34°30' E 151°14'3312.2
2017-Sep-21 15:40S 33°59' E 151°25'210.7
2017-Sep-21 15:28S 33°57' E 151°25'712.0
2017-Sep-21 14:51S 33°51' E 151°20'3 8.3
2017-Sep-21 14:30S 33°50' E 151°16'6 0.3
2017-Sep-20 16:38S 33°51' E 151°24'1 6.3
2017-Sep-20 16:28S 33°51' E 151°25'1 1.8
2017-Sep-20 15:52S 33°50' E 151°27'1 2.4
2017-Sep-20 15:30S 33°50' E 151°27'5710.1
2017-Sep-20 09:52S 33°14' E 152°20'511.2
2017-Sep-20 09:27S 33°10' E 152°24'511.1
2017-Sep-20 09:00S 33°06' E 152°28'611.2
2017-Sep-20 08:30S 33°02' E 152°32'611.7
2017-Sep-20 08:00S 32°58' E 152°37'612.3
2017-Sep-20 07:30S 32°53' E 152°41'612.2
2017-Sep-20 07:00S 32°48' E 152°46'23611.8
2017-Sep-19 10:59S 28°59' E 153°51'913.8
2017-Sep-19 10:18S 28°50' E 153°53'413.8
2017-Sep-19 10:00S 28°46' E 153°53'713.7
2017-Sep-19 09:28S 28°38' E 153°54'613.5
2017-Sep-19 09:00S 28°32' E 153°54'713.2
2017-Sep-19 08:31S 28°26' E 153°54'713.2
2017-Sep-19 08:00S 28°19' E 153°55'613.0
2017-Sep-19 07:30S 28°12' E 153°55'612.3
2017-Sep-19 07:00S 28°06' E 153°55'611.9
2017-Sep-19 06:31S 28°00' E 153°54'611.5
2017-Sep-19 06:00S 27°55' E 153°54'611.2
2017-Sep-19 05:30S 27°49' E 153°53'511.1
2017-Sep-19 05:00S 27°43' E 153°53'611.0
2017-Sep-19 04:30S 27°38' E 153°53'3910.6
2017-Sep-19 00:48S 26°59' E 153°50'410.8
2017-Sep-19 00:27S 26°55' E 153°49'610.9
2017-Sep-18 23:54S 26°49' E 153°49'611.4
2017-Sep-18 23:20S 26°43' E 153°48'411.2
2017-Sep-18 23:01S 26°39' E 153°48'611.1
2017-Sep-18 22:31S 26°33' E 153°48'711.0
2017-Sep-18 21:51S 26°26' E 153°47'  
2017-Sep-14 14:26S 27°36' E 153°52'511.4
2017-Sep-14 14:00S 27°41' E 153°52'611.4
2017-Sep-14 13:30S 27°46' E 153°53'611.5
2017-Sep-14 13:00S 27°52' E 153°53'611.4
2017-Sep-14 12:30S 27°58' E 153°53'28111.2
2017-Sep-13 11:30S 32°31' E 152°38'811.6
2017-Sep-13 10:50S 32°37' E 152°32'411.5
2017-Sep-13 10:31S 32°40' E 152°29'611.3
2017-Sep-13 10:00S 32°44' E 152°25'611.3
2017-Sep-13 09:30S 32°49' E 152°21'611.6
2017-Sep-13 09:00S 32°53' E 152°17'611.8
2017-Sep-13 08:30S 32°58' E 152°12'612.1
2017-Sep-13 08:00S 33°03' E 152°08'612.1
2017-Sep-13 07:30S 33°07' E 152°03'611.8
2017-Sep-13 07:00S 33°12' E 151°59'611.6
2017-Sep-13 06:30S 33°17' E 151°55'2911.3
2017-Sep-13 03:59S 33°39' E 151°33'511.1
2017-Sep-13 03:30S 33°43' E 151°29'510.7
2017-Sep-13 03:00S 33°47' E 151°25'  

Dump ship's entire track history